createdAt,value
2018-03-06T00:01:06.142Z,5.93
2018-03-06T00:03:35.870Z,6.47
2018-03-06T00:06:05.746Z,7.40
2018-03-06T00:08:36.244Z,7.03
2018-03-06T00:11:09.020Z,6.83
2018-03-06T00:13:38.748Z,6.03
2018-03-06T00:16:08.435Z,6.97
2018-03-06T00:18:38.230Z,7.47
2018-03-06T00:21:08.839Z,7.57
2018-03-06T00:23:38.568Z,6.57
2018-03-06T00:26:08.302Z,7.07
2018-03-06T00:28:37.986Z,7.00
2018-03-06T00:31:07.821Z,6.83
2018-03-06T00:33:37.485Z,7.07
2018-03-06T00:36:08.134Z,7.57
2018-03-06T00:38:38.627Z,7.70
2018-03-06T00:41:08.371Z,6.87
2018-03-06T00:43:38.133Z,7.20
2018-03-06T00:46:07.879Z,6.13
2018-03-06T00:48:37.601Z,7.40
2018-03-06T00:51:07.345Z,7.43
2018-03-06T00:53:37.080Z,6.87
2018-03-06T00:56:06.884Z,6.60
2018-03-06T00:58:36.650Z,6.90
2018-03-06T01:01:07.325Z,7.00
2018-03-06T01:03:37.146Z,7.00
2018-03-06T01:06:06.968Z,7.97
2018-03-06T01:08:36.692Z,7.37
2018-03-06T01:11:06.462Z,7.00
2018-03-06T01:13:36.222Z,6.93
2018-03-06T01:16:05.977Z,7.50
2018-03-06T01:18:35.678Z,8.13
2018-03-06T01:21:05.400Z,6.83
2018-03-06T01:23:35.326Z,7.13
2018-03-06T01:26:05.060Z,6.80
2018-03-06T01:28:34.801Z,7.27
2018-03-06T01:31:04.633Z,7.60
2018-03-06T01:33:34.450Z,8.13
2018-03-06T01:36:04.165Z,7.63
2018-03-06T01:38:33.978Z,7.40
2018-03-06T01:41:03.751Z,6.70
2018-03-06T01:43:33.451Z,7.03
2018-03-06T01:46:03.138Z,7.43
2018-03-06T01:48:32.925Z,7.33
2018-03-06T01:51:02.647Z,7.60
2018-03-06T01:53:32.356Z,7.47
2018-03-06T01:56:02.211Z,7.37
2018-03-06T01:58:31.897Z,7.23
2018-03-06T02:01:01.588Z,7.07
2018-03-06T02:03:31.332Z,7.43
2018-03-06T02:06:01.112Z,6.67
2018-03-06T02:08:31.022Z,6.73
2018-03-06T02:11:00.775Z,7.10
2018-03-06T02:13:30.543Z,7.10
2018-03-06T02:16:01.920Z,8.00
2018-03-06T02:18:32.333Z,6.73
2018-03-06T02:21:02.082Z,7.43
2018-03-06T02:23:31.795Z,6.93
2018-03-06T02:26:01.679Z,6.70
2018-03-06T02:28:31.380Z,7.00
2018-03-06T02:31:01.072Z,7.17
2018-03-06T02:33:30.877Z,6.27
2018-03-06T02:36:01.512Z,7.57
2018-03-06T02:38:31.393Z,6.90
2018-03-06T02:41:01.142Z,7.93
2018-03-06T02:43:30.840Z,6.93
2018-03-06T02:46:11.344Z,7.93
2018-03-06T02:48:41.035Z,7.07
2018-03-06T02:51:10.805Z,7.43
2018-03-06T02:53:40.542Z,7.60
2018-03-06T02:56:10.304Z,6.57
2018-03-06T02:58:40.168Z,7.33
2018-03-06T03:01:09.880Z,6.97
2018-03-06T03:03:39.669Z,7.17
2018-03-06T03:06:09.416Z,7.27
2018-03-06T03:08:39.138Z,7.00
2018-03-06T03:11:08.896Z,8.00
2018-03-06T03:13:39.409Z,7.77
2018-03-06T03:16:09.177Z,7.87
2018-03-06T03:18:38.879Z,7.27
2018-03-06T03:21:09.419Z,8.23
2018-03-06T03:23:39.893Z,8.10
2018-03-06T03:26:09.678Z,7.30
2018-03-06T03:28:40.165Z,8.07
2018-03-06T03:31:09.889Z,7.27
2018-03-06T03:33:39.586Z,8.50
2018-03-06T03:36:09.343Z,8.17
2018-03-06T03:38:39.067Z,8.70
2018-03-06T03:41:08.788Z,8.20
2018-03-06T03:43:38.492Z,7.53
2018-03-06T03:46:08.294Z,8.67
2018-03-06T03:48:38.136Z,8.83
2018-03-06T03:51:07.948Z,7.43
2018-03-06T03:53:37.627Z,8.57
2018-03-06T03:56:11.528Z,8.37
2018-03-06T03:58:41.301Z,9.60
2018-03-06T04:01:11.013Z,8.37
2018-03-06T04:03:40.718Z,9.23
2018-03-06T04:06:11.202Z,11.03
2018-03-06T04:08:40.928Z,11.10
2018-03-06T04:11:10.631Z,10.23
2018-03-06T04:13:40.359Z,9.97
2018-03-06T04:16:10.049Z,9.50
2018-03-06T04:18:40.552Z,11.23
2018-03-06T04:21:10.259Z,11.00
2018-03-06T04:23:40.014Z,12.27
2018-03-06T04:26:09.703Z,10.73
2018-03-06T04:28:39.478Z,11.60
2018-03-06T04:31:09.920Z,11.73
2018-03-06T04:33:39.748Z,12.50
2018-03-06T04:36:09.476Z,14.33
2018-03-06T04:38:39.175Z,11.90
2018-03-06T04:41:09.666Z,13.47
2018-03-06T04:43:39.408Z,13.67
2018-03-06T04:46:09.200Z,13.07
2018-03-06T04:48:38.969Z,14.20
2018-03-06T04:51:08.732Z,14.53
2018-03-06T04:53:38.411Z,14.87
2018-03-06T04:56:08.831Z,15.33
2018-03-06T04:58:38.817Z,13.17
2018-03-06T05:01:08.538Z,16.27
2018-03-06T05:03:38.367Z,13.70
2018-03-06T05:06:08.072Z,16.97
2018-03-06T05:08:37.816Z,14.87
2018-03-06T05:11:07.752Z,16.47
2018-03-06T05:13:37.623Z,17.20
2018-03-06T05:16:08.205Z,16.60
2018-03-06T05:18:37.949Z,15.20
2018-03-06T05:21:07.696Z,16.07
2018-03-06T05:23:37.581Z,16.27
2018-03-06T05:26:07.340Z,16.33
2018-03-06T05:28:37.083Z,16.20
2018-03-06T05:31:07.588Z,14.70
2018-03-06T05:33:37.378Z,14.83
2018-03-06T05:36:07.271Z,16.40
2018-03-06T05:38:37.831Z,17.40
2018-03-06T05:41:07.606Z,16.80
2018-03-06T05:43:37.324Z,17.40
2018-03-06T05:46:07.047Z,16.37
2018-03-06T05:48:36.755Z,16.23
2018-03-06T05:51:06.467Z,17.10
2018-03-06T05:53:36.197Z,15.07
2018-03-06T05:56:05.923Z,16.87
2018-03-06T05:58:35.779Z,17.80
2018-03-06T06:01:06.475Z,17.33
2018-03-06T06:03:36.289Z,16.33
2018-03-06T06:06:06.141Z,17.23
2018-03-06T06:08:35.895Z,18.50
2018-03-06T06:11:06.484Z,18.00
2018-03-06T06:13:36.256Z,18.43
2018-03-06T06:16:06.880Z,17.77
2018-03-06T06:18:36.650Z,16.30
2018-03-06T06:21:07.217Z,18.53
2018-03-06T06:23:37.000Z,18.53
2018-03-06T06:26:07.552Z,18.43
2018-03-06T06:28:38.105Z,18.50
2018-03-06T06:31:07.997Z,18.50
2018-03-06T06:33:37.713Z,18.30
2018-03-06T06:36:07.839Z,19.27
2018-03-06T06:38:37.548Z,19.77
2018-03-06T06:41:07.515Z,19.37
2018-03-06T06:43:38.039Z,18.47
2018-03-06T06:46:07.863Z,19.53
2018-03-06T06:48:37.728Z,19.50
2018-03-06T06:51:07.514Z,20.10
2018-03-06T06:53:38.053Z,19.17
2018-03-06T06:56:08.576Z,20.10
2018-03-06T06:58:38.419Z,21.20
2018-03-06T07:01:08.169Z,20.80
2018-03-06T07:03:37.987Z,19.53
2018-03-06T07:06:07.880Z,20.63
2018-03-06T07:08:37.625Z,20.00
2018-03-06T07:11:08.212Z,20.13
2018-03-06T07:13:38.093Z,19.10
2018-03-06T07:16:08.694Z,20.43
2018-03-06T07:18:38.452Z,21.30
2018-03-06T07:21:08.982Z,19.57
2018-03-06T07:23:38.775Z,20.00
2018-03-06T07:26:08.690Z,19.57
2018-03-06T07:28:38.532Z,19.47
2018-03-06T07:31:08.359Z,19.87
2018-03-06T07:33:38.220Z,20.93
2018-03-06T07:36:08.807Z,20.70
2018-03-06T07:38:38.692Z,19.73
2018-03-06T07:41:08.511Z,21.03
2018-03-06T07:43:39.040Z,21.43
2018-03-06T07:46:09.572Z,21.70
2018-03-06T07:48:39.505Z,19.83
2018-03-06T07:51:10.153Z,18.03
2018-03-06T07:53:39.863Z,21.57
2018-03-06T07:56:09.713Z,20.97
2018-03-06T07:58:39.585Z,22.00
2018-03-06T08:01:09.277Z,20.83
2018-03-06T08:03:39.025Z,21.73
2018-03-06T08:06:08.847Z,21.67
2018-03-06T08:08:38.560Z,21.67
2018-03-06T08:11:08.319Z,20.73
2018-03-06T08:13:39.849Z,19.30
2018-03-06T08:16:09.747Z,21.73
2018-03-06T08:18:39.531Z,21.50
2018-03-06T08:21:09.440Z,21.40
2018-03-06T08:23:39.340Z,21.67
2018-03-06T08:26:09.145Z,21.40
2018-03-06T08:28:39.096Z,21.20
2018-03-06T08:31:08.877Z,21.43
2018-03-06T08:33:39.398Z,18.53
2018-03-06T08:36:09.455Z,21.80
2018-03-06T08:38:39.244Z,20.73
2018-03-06T08:41:09.013Z,19.23
2018-03-06T08:43:38.927Z,20.33
2018-03-06T08:46:09.445Z,20.50
2018-03-06T08:48:39.320Z,22.70
2018-03-06T08:51:09.072Z,21.20
2018-03-06T08:53:38.856Z,22.33
2018-03-06T08:56:08.696Z,20.87
2018-03-06T08:58:38.473Z,20.20
2018-03-06T09:01:08.986Z,21.90
2018-03-06T09:03:38.784Z,21.93
2018-03-06T09:06:08.653Z,20.87
2018-03-06T09:08:38.481Z,22.30
2018-03-06T09:11:09.061Z,21.20
2018-03-06T09:13:39.650Z,21.37
2018-03-06T09:16:09.456Z,21.43
2018-03-06T09:18:39.270Z,22.20
2018-03-06T09:21:09.047Z,22.33
2018-03-06T09:23:39.791Z,21.23
2018-03-06T09:26:10.372Z,20.90
2018-03-06T09:28:40.196Z,22.53
2018-03-06T09:31:10.030Z,21.23
2018-03-06T09:33:39.772Z,21.60
2018-03-06T09:36:09.554Z,20.40
2018-03-06T09:38:40.222Z,23.20
2018-03-06T09:41:09.974Z,20.53
2018-03-06T09:43:39.711Z,23.07
2018-03-06T09:46:10.192Z,21.57
2018-03-06T09:48:39.953Z,20.67
2018-03-06T09:51:09.742Z,20.67
2018-03-06T09:53:39.519Z,20.87
2018-03-06T09:56:10.032Z,21.30
2018-03-06T09:58:40.052Z,19.90
2018-03-06T10:01:09.883Z,21.13
2018-03-06T10:03:39.693Z,20.80
2018-03-06T10:06:09.528Z,23.00
2018-03-06T10:08:39.303Z,22.33
2018-03-06T10:11:09.148Z,21.27
2018-03-06T10:13:38.940Z,23.47
2018-03-06T10:16:08.976Z,22.07
2018-03-06T10:18:39.264Z,23.07
2018-03-06T10:21:09.006Z,21.60
2018-03-06T10:23:39.811Z,21.63
2018-03-06T10:26:09.592Z,21.50
2018-03-06T10:28:39.476Z,22.83
2018-03-06T10:31:09.374Z,24.60
2018-03-06T10:33:39.132Z,24.27
2018-03-06T10:36:08.839Z,22.40
2018-03-06T10:38:38.728Z,23.27
2018-03-06T10:41:08.540Z,22.70
2018-03-06T10:43:38.348Z,24.70
2018-03-06T10:46:09.013Z,23.67
2018-03-06T10:48:38.758Z,23.07
2018-03-06T10:51:08.638Z,20.50
2018-03-06T10:53:39.201Z,19.20
2018-03-06T10:56:08.918Z,20.07
2018-03-06T10:58:38.772Z,21.17
2018-03-06T11:01:09.292Z,23.03
2018-03-06T11:03:39.809Z,23.83
2018-03-06T11:06:10.279Z,22.13
2018-03-06T11:08:40.113Z,22.70
2018-03-06T11:11:09.865Z,22.57
2018-03-06T11:13:39.638Z,21.40
2018-03-06T11:16:09.467Z,21.57
2018-03-06T11:18:39.191Z,22.33
2018-03-06T11:21:08.974Z,23.60
2018-03-06T11:23:39.632Z,24.37
2018-03-06T11:26:09.413Z,23.33
2018-03-06T11:28:39.221Z,21.97
2018-03-06T11:31:08.920Z,23.07
2018-03-06T11:33:39.637Z,22.13
2018-03-06T11:36:10.253Z,22.93
2018-03-06T11:38:39.978Z,23.20
2018-03-06T11:41:09.859Z,23.70
2018-03-06T11:43:39.746Z,22.93
2018-03-06T11:46:10.292Z,23.10
2018-03-06T11:48:39.996Z,22.80
2018-03-06T11:51:09.757Z,23.13
2018-03-06T11:53:39.613Z,22.43
2018-03-06T11:56:09.600Z,22.03
2018-03-06T11:58:39.372Z,19.97
2018-03-06T12:01:09.140Z,22.00
2018-03-06T12:03:39.056Z,20.47
2018-03-06T12:06:09.627Z,21.47
2018-03-06T12:08:39.372Z,20.80
2018-03-06T12:11:09.099Z,19.70
2018-03-06T12:13:38.814Z,18.40
2018-03-06T12:16:08.707Z,19.60
2018-03-06T12:18:38.676Z,19.10
2018-03-06T12:21:08.519Z,19.10
2018-03-06T12:23:38.400Z,17.70
2018-03-06T12:26:08.274Z,18.50
2018-03-06T12:28:38.052Z,18.00
2018-03-06T12:31:07.960Z,16.83
2018-03-06T12:33:37.765Z,17.67
2018-03-06T12:36:07.585Z,15.60
2018-03-06T12:38:38.275Z,19.90
2018-03-06T12:41:08.213Z,18.40
2018-03-06T12:43:38.114Z,18.40
2018-03-06T12:46:08.100Z,18.80
2018-03-06T12:48:37.995Z,17.97
2018-03-06T12:51:08.003Z,19.50
2018-03-06T12:53:37.844Z,18.87
2018-03-06T12:56:07.627Z,18.70
2018-03-06T12:58:37.466Z,15.73
2018-03-06T13:01:07.328Z,19.10
2018-03-06T13:03:37.136Z,17.07
2018-03-06T13:06:07.041Z,18.20
2018-03-06T13:08:36.893Z,17.37
2018-03-06T13:11:06.936Z,16.67
2018-03-06T13:13:36.814Z,17.17
2018-03-06T13:16:06.677Z,16.90
2018-03-06T13:18:36.532Z,16.23
2018-03-06T13:21:06.409Z,17.23
2018-03-06T13:23:36.194Z,16.63
2018-03-06T13:26:06.143Z,17.50
2018-03-06T13:28:36.023Z,16.77
2018-03-06T13:31:05.988Z,16.83
2018-03-06T13:33:35.851Z,17.43
2018-03-06T13:36:05.823Z,17.63
2018-03-06T13:38:35.767Z,15.83
2018-03-06T13:41:05.657Z,16.27
2018-03-06T13:43:36.267Z,13.40
2018-03-06T13:46:06.236Z,14.93
2018-03-06T13:48:36.126Z,14.70
2018-03-06T13:51:06.080Z,16.07
2018-03-06T13:53:36.672Z,13.90
2018-03-06T13:56:06.490Z,14.00
2018-03-06T13:58:36.421Z,15.27
2018-03-06T14:01:06.369Z,14.97
2018-03-06T14:03:36.334Z,12.87
2018-03-06T14:06:06.957Z,13.33
2018-03-06T14:08:36.871Z,12.77
2018-03-06T14:11:06.667Z,12.40
2018-03-06T14:13:36.556Z,12.30
2018-03-06T14:16:06.456Z,11.80
2018-03-06T14:18:36.292Z,12.20
2018-03-06T14:21:07.497Z,11.43
2018-03-06T14:23:37.338Z,12.37
2018-03-06T14:26:07.219Z,11.43
2018-03-06T14:28:37.048Z,11.43
2018-03-06T14:31:07.045Z,10.37
2018-03-06T14:33:36.869Z,11.17
2018-03-06T14:36:06.780Z,11.43
2018-03-06T14:38:36.608Z,9.03
2018-03-06T14:41:06.775Z,10.60
2018-03-06T14:43:36.657Z,10.10
2018-03-06T14:46:06.534Z,10.43
2018-03-06T14:48:36.486Z,11.67
2018-03-06T14:51:08.049Z,12.80
2018-03-06T14:53:37.917Z,9.93
2018-03-06T14:56:08.380Z,10.40
2018-03-06T14:58:38.256Z,11.07
2018-03-06T15:01:08.433Z,11.87
2018-03-06T15:03:39.166Z,11.07
2018-03-06T15:06:09.773Z,11.93
2018-03-06T15:08:39.571Z,12.10
2018-03-06T15:11:09.397Z,11.13
2018-03-06T15:13:39.412Z,10.23
2018-03-06T15:16:09.343Z,10.07
2018-03-06T15:18:39.364Z,10.37
2018-03-06T15:21:09.285Z,11.33
2018-03-06T15:23:39.069Z,10.97
2018-03-06T15:26:08.908Z,10.33
2018-03-06T15:28:38.872Z,10.90
2018-03-06T15:31:08.694Z,12.30
2018-03-06T15:33:38.579Z,10.07
2018-03-06T15:36:08.473Z,11.97
2018-03-06T15:38:38.301Z,11.30
2018-03-06T15:41:08.154Z,12.27
2018-03-06T15:43:38.130Z,10.37
2018-03-06T15:46:07.915Z,13.13
2018-03-06T15:48:38.537Z,13.53
2018-03-06T15:51:08.352Z,13.23
2018-03-06T15:53:38.219Z,11.47
2018-03-06T15:56:08.044Z,11.20
2018-03-06T15:58:38.726Z,12.57
2018-03-06T16:01:08.517Z,12.53
2018-03-06T16:03:38.254Z,11.63
2018-03-06T16:06:08.252Z,12.77
2018-03-06T16:08:38.786Z,12.27
2018-03-06T16:11:08.587Z,13.10
2018-03-06T16:13:38.389Z,11.47
2018-03-06T16:16:08.553Z,12.37
2018-03-06T16:18:38.305Z,12.60
2018-03-06T16:21:08.284Z,12.07
2018-03-06T16:23:38.090Z,12.30
2018-03-06T16:26:08.631Z,12.80
2018-03-06T16:28:38.464Z,13.83
2018-03-06T16:31:08.393Z,14.30
2018-03-06T16:33:38.192Z,12.27
2018-03-06T16:36:08.112Z,15.33
2018-03-06T16:38:39.067Z,12.90
2018-03-06T16:41:08.876Z,11.17
2018-03-06T16:43:38.677Z,13.87
2018-03-06T16:46:09.375Z,11.90
2018-03-06T16:48:39.228Z,12.43
2018-03-06T16:51:08.994Z,13.60
2018-03-06T16:53:38.880Z,13.80
2018-03-06T16:56:08.660Z,13.20
2018-03-06T16:58:38.465Z,13.93
2018-03-06T17:01:08.317Z,13.33
2018-03-06T17:03:38.146Z,15.00
2018-03-06T17:06:08.294Z,14.80
2018-03-06T17:08:38.248Z,14.23
2018-03-06T17:11:08.164Z,15.80
2018-03-06T17:13:38.033Z,12.63
2018-03-06T17:16:08.023Z,13.07
2018-03-06T17:18:37.707Z,13.50
2018-03-06T17:21:07.572Z,14.20
2018-03-06T17:23:37.482Z,14.93
2018-03-06T17:26:07.309Z,13.87
2018-03-06T17:28:37.164Z,14.90
2018-03-06T17:31:06.953Z,13.97
2018-03-06T17:33:36.771Z,15.17
2018-03-06T17:36:06.623Z,13.90
2018-03-06T17:38:36.376Z,14.00
2018-03-06T17:41:06.156Z,13.97
2018-03-06T17:43:35.892Z,15.07
2018-03-06T17:46:05.720Z,14.83
2018-03-06T17:48:35.455Z,15.13
2018-03-06T17:51:05.372Z,15.47
2018-03-06T17:53:35.192Z,15.23
2018-03-06T17:56:04.977Z,14.93
2018-03-06T17:58:34.736Z,16.23
2018-03-06T18:01:04.467Z,15.43
2018-03-06T18:03:34.260Z,15.03
2018-03-06T18:06:04.347Z,14.00
2018-03-06T18:08:34.153Z,14.60
2018-03-06T18:11:03.904Z,13.83
2018-03-06T18:13:33.707Z,14.70
2018-03-06T18:16:03.448Z,14.40
2018-03-06T18:18:33.266Z,14.50
2018-03-06T18:21:03.109Z,14.80
2018-03-06T18:23:32.934Z,13.47
2018-03-06T18:26:02.802Z,15.03
2018-03-06T18:28:32.603Z,15.03
2018-03-06T18:31:03.293Z,14.50
2018-03-06T18:33:33.259Z,14.90
2018-03-06T18:36:03.111Z,14.53
2018-03-06T18:38:32.993Z,15.90
2018-03-06T18:41:02.761Z,14.80
2018-03-06T18:43:32.606Z,15.57
2018-03-06T18:46:02.402Z,14.83
2018-03-06T18:48:32.195Z,15.40
2018-03-06T18:51:12.370Z,14.70
2018-03-06T18:53:42.163Z,14.37
2018-03-06T18:56:10.966Z,15.10
2018-03-06T18:58:40.809Z,15.50
2018-03-06T19:02:30.981Z,15.70
2018-03-06T19:06:15.815Z,15.57
2018-03-06T19:08:45.778Z,15.53
2018-03-06T19:11:15.547Z,14.17
2018-03-06T19:13:45.508Z,14.43
2018-03-06T19:16:16.141Z,15.17
2018-03-06T19:18:45.923Z,14.80
2018-03-06T19:21:15.736Z,14.80
2018-03-06T19:23:45.537Z,16.17
2018-03-06T19:26:15.520Z,16.27
2018-03-06T19:28:45.259Z,13.93
2018-03-06T19:31:15.062Z,15.73
2018-03-06T19:33:44.832Z,15.67
2018-03-06T19:36:14.720Z,16.13
2018-03-06T19:38:44.418Z,16.07
2018-03-06T19:41:14.222Z,16.40
2018-03-06T19:43:43.992Z,15.47
2018-03-06T19:46:13.929Z,17.83
2018-03-06T19:48:44.520Z,16.43
2018-03-06T19:51:14.351Z,16.87
2018-03-06T19:53:44.268Z,15.70
2018-03-06T19:56:14.080Z,16.37
2018-03-06T19:58:43.848Z,16.47
2018-03-06T20:01:13.732Z,16.77
2018-03-06T20:03:43.573Z,18.40
2018-03-06T20:06:13.361Z,17.63
2018-03-06T20:08:43.914Z,17.40
2018-03-06T20:11:13.648Z,17.97
2018-03-06T20:13:43.445Z,17.57
2018-03-06T20:16:13.284Z,18.80
2018-03-06T20:18:43.498Z,17.77
2018-03-06T20:21:13.446Z,17.97
2018-03-06T20:23:43.237Z,18.17
2018-03-06T20:26:13.990Z,19.20
2018-03-06T20:28:43.927Z,18.60
2018-03-06T20:32:17.221Z,19.23
2018-03-06T20:34:46.981Z,19.77
2018-03-06T20:37:16.774Z,18.80
2018-03-06T20:40:51.317Z,18.20
2018-03-06T20:43:21.161Z,15.73
2018-03-06T20:45:55.805Z,15.40
2018-03-06T20:48:25.601Z,18.60
2018-03-06T20:50:55.549Z,19.00
2018-03-06T20:53:29.468Z,18.07
2018-03-06T20:55:59.983Z,18.30
2018-03-06T20:58:29.771Z,19.27
2018-03-06T21:00:59.495Z,19.03
2018-03-06T21:03:29.271Z,19.07
2018-03-06T21:05:59.820Z,18.77
2018-03-06T21:08:29.597Z,19.07
2018-03-06T21:10:59.616Z,19.40
2018-03-06T21:13:29.390Z,19.13
2018-03-06T21:16:00.026Z,19.33
2018-03-06T21:18:30.757Z,18.07
2018-03-06T21:21:01.354Z,15.30
2018-03-06T21:23:31.103Z,15.47
2018-03-06T21:26:00.878Z,18.77
2018-03-06T21:28:30.840Z,16.63
2018-03-06T21:31:00.614Z,14.43
2018-03-06T21:33:31.140Z,20.60
2018-03-06T21:36:01.679Z,17.73
2018-03-06T21:38:31.449Z,19.73
2018-03-06T21:41:01.208Z,17.30
2018-03-06T21:43:31.031Z,18.80
2018-03-06T21:46:00.835Z,18.40
2018-03-06T21:48:30.552Z,16.30
2018-03-06T21:51:00.536Z,19.70
2018-03-06T21:53:31.060Z,16.57
2018-03-06T21:56:00.869Z,19.93
2018-03-06T21:58:30.622Z,20.27
2018-03-06T22:01:00.403Z,19.53
2018-03-06T22:03:30.163Z,20.30
2018-03-06T22:06:00.740Z,20.70
2018-03-06T22:08:30.507Z,24.50
2018-03-06T22:11:00.253Z,25.17
2018-03-06T22:13:30.800Z,24.33
2018-03-06T22:16:01.689Z,23.43
2018-03-06T22:18:31.676Z,25.10
2018-03-06T22:21:02.156Z,24.27
2018-03-06T22:23:31.919Z,23.97
2018-03-06T22:26:02.493Z,25.73
2018-03-06T22:28:32.248Z,24.47
2018-03-06T22:31:02.003Z,24.40
2018-03-06T22:33:32.521Z,24.87
2018-03-06T22:36:02.239Z,25.07
2018-03-06T22:38:31.936Z,26.47
2018-03-06T22:41:01.666Z,24.03
2018-03-06T22:43:31.472Z,25.67
2018-03-06T22:46:01.243Z,27.57
2018-03-06T22:48:31.041Z,27.40
2018-03-06T22:51:00.752Z,26.77
2018-03-06T22:53:30.769Z,27.50
2018-03-06T22:56:00.649Z,27.20
2018-03-06T22:58:30.366Z,26.97
2018-03-06T23:01:00.129Z,26.97
2018-03-06T23:03:30.090Z,27.03
2018-03-06T23:05:59.930Z,26.53
2018-03-06T23:08:29.685Z,23.93
2018-03-06T23:10:59.400Z,27.63
2018-03-06T23:13:29.696Z,26.50
2018-03-06T23:15:59.723Z,27.30
2018-03-06T23:18:29.965Z,27.73
2018-03-06T23:20:59.736Z,25.87
2018-03-06T23:23:29.473Z,24.57
2018-03-06T23:25:59.273Z,27.73
2018-03-06T23:28:29.739Z,25.50
2018-03-06T23:30:59.458Z,22.60
2018-03-06T23:33:30.367Z,22.10
2018-03-06T23:36:00.134Z,25.07
2018-03-06T23:38:29.947Z,25.93
2018-03-06T23:40:59.784Z,25.07
2018-03-06T23:43:29.550Z,25.17
2018-03-06T23:45:59.284Z,25.57
2018-03-06T23:48:29.102Z,26.80
2018-03-06T23:50:58.807Z,26.17
2018-03-06T23:53:29.035Z,26.73
2018-03-06T23:55:58.731Z,27.70
2018-03-06T23:58:28.701Z,28.23
